Bow, WA (98232)

11:31 AM PST on February 23, 2017 (GMT -0800)
Downtown Bow | | Change Station

Elev 16 ft 48.56 °N, 122.40 °W | Updated 55 seconds ago

Mostly Cloudy
Mostly Cloudy
41.2 °F
Feels Like 41 °F
N
1.7
Wind Variable Wind from ESE

Today
High -- | Low -- °F
--% Chance of Precip.
Yesterday
High -- | Low -- °F
Precip. -- in
Pressure 30.26 in
Visibility 8.0 miles
Clouds Scattered Clouds 900 ft
Mostly Cloudy 1200 ft
Windchill 41 °F
Dew Point 36 °F
Humidity 80%
Rainfall 0.00 in
Snow Depth Not available.
7:01 AM 5:44 PM
Waning Crescent, 9% visible
SPECI KBLI 231900Z 00000KT 8SM SCT009 BKN012 04/02 A3026 RMK AO2 T00390022
Pressure 30.26 in
Visibility 8.0 miles
Clouds Scattered Clouds 900 ft
Mostly Cloudy 1200 ft
Windchill 41 °F
Dew Point 36 °F
Humidity 80%
Rainfall 0.00 in
Snow Depth Not available.
7:01 AM 5:44 PM
Waning Crescent, 9% visible
SPECI KBLI 231900Z 00000KT 8SM SCT009 BKN012 04/02 A3026 RMK AO2 T00390022

Get Your Daily Forecast Email!

Thanks for signing up!

Be on the lookout for a verification email in your inbox.

You'll start receiving the daily forecast at 8 AM.

×

10-Day Weather Forecast

Almanac

Astronomy

Feb. 23, 2017 Rise Set
Actual Time
Civil Twilight
Nautical Twilight
Astronomical Twilight
Moon
Length of Visible Light
Length of Day
Tomorrow will be .
, % of the Moon is Illuminated

Today's Extremes

State Highs State Lows

Community

WunderPhotos

Upload Photos

1,962,540 photos uploaded!

WunderBlog® & News

Nearby

Air Quality

  Air Quality AQ Index Pollutant
Not available.

Snow Depth

Station Depth Elevation

Earthquake Activity

City Distance Mag. Time & Date
Minimum magnitude displayed is 2.5.

Coastal Water Temperatures

Place Temperature

Stations

Nearby Weather Stations

Station Location Temp. Windchill Dew Point Humidity Wind Precip. Elev Updated Type
                   

Watches & Warnings

There are currently no watches in effect.